createdAt,value
2022-12-25T00:00:04.693Z,100440.53
2022-12-25T00:02:32.789Z,100470.00
2022-12-25T00:05:00.965Z,100463.63
2022-12-25T00:07:30.338Z,100430.41
2022-12-25T00:09:58.163Z,100476.91
2022-12-25T00:12:26.661Z,100482.22
2022-12-25T00:14:54.585Z,100484.06
2022-12-25T00:17:22.429Z,100436.38
2022-12-25T00:19:50.852Z,100482.69
2022-12-25T00:22:18.706Z,100469.28
2022-12-25T00:24:50.159Z,100430.63
2022-12-25T00:27:18.768Z,100455.44
2022-12-25T00:29:46.607Z,100445.63
2022-12-25T00:32:14.405Z,100428.56
2022-12-25T00:34:42.500Z,100463.72
2022-12-25T00:37:10.453Z,100474.88
2022-12-25T00:39:38.559Z,100446.44
2022-12-25T00:42:20.833Z,100442.75
2022-12-25T00:44:48.674Z,100471.19
2022-12-25T00:47:17.480Z,100437.44
2022-12-25T00:49:45.664Z,100460.13
2022-12-25T00:52:13.572Z,100453.63
2022-12-25T00:54:41.434Z,100441.88
2022-12-25T00:57:11.556Z,100452.38
2022-12-25T00:59:39.518Z,100435.09
2022-12-25T01:02:26.438Z,100444.41
2022-12-25T01:04:56.400Z,100432.63
2022-12-25T01:07:26.886Z,100428.31
2022-12-25T01:10:12.541Z,100440.13
2022-12-25T01:12:44.591Z,100438.06
2022-12-25T01:15:13.851Z,100439.09
2022-12-25T01:17:42.039Z,100439.81
2022-12-25T01:20:10.822Z,100442.78
2022-12-25T01:22:38.859Z,100425.34
2022-12-25T01:25:07.317Z,100451.13
2022-12-25T01:27:35.779Z,100439.53
2022-12-25T01:30:05.796Z,100458.06
2022-12-25T01:32:33.955Z,100437.97
2022-12-25T01:35:02.469Z,100468.25
2022-12-25T01:37:30.318Z,100436.72
2022-12-25T01:39:58.178Z,100449.50
2022-12-25T01:42:26.585Z,100465.38
2022-12-25T01:45:39.696Z,100460.44
2022-12-25T01:48:13.510Z,100453.41
2022-12-25T01:50:45.483Z,100461.91
2022-12-25T01:53:14.326Z,100435.44
2022-12-25T01:55:44.579Z,100480.91
2022-12-25T01:58:12.583Z,100465.72
2022-12-25T02:00:44.926Z,100445.63
2022-12-25T02:03:13.012Z,100486.69
2022-12-25T02:05:41.293Z,100472.88
2022-12-25T02:08:13.000Z,100492.19
2022-12-25T02:10:41.123Z,100485.28
2022-12-25T02:13:09.955Z,100469.59
2022-12-25T02:15:47.612Z,100487.13
2022-12-25T02:18:26.927Z,100494.03
2022-12-25T02:21:15.807Z,100489.19
2022-12-25T02:24:10.230Z,100474.91
2022-12-25T02:27:04.523Z,100496.94
2022-12-25T02:29:43.691Z,100497.16
2022-12-25T02:32:18.611Z,100496.50
2022-12-25T02:34:51.896Z,100451.38
2022-12-25T02:37:27.572Z,100454.22
2022-12-25T02:40:02.833Z,100456.41
2022-12-25T02:43:05.621Z,100459.81
2022-12-25T02:45:59.204Z,100458.13
2022-12-25T02:48:49.492Z,100447.06
2022-12-25T02:51:39.013Z,100460.06
2022-12-25T02:54:28.948Z,100449.22
2022-12-25T02:57:16.870Z,100443.09
2022-12-25T03:00:06.049Z,100435.94
2022-12-25T03:02:53.322Z,100437.53
2022-12-25T03:05:42.386Z,100434.69
2022-12-25T03:08:14.976Z,100398.44
2022-12-25T03:11:09.586Z,100413.44
2022-12-25T03:13:40.862Z,100402.22
2022-12-25T03:16:27.149Z,100383.31
2022-12-25T03:18:58.902Z,100386.59
2022-12-25T03:21:45.562Z,100405.91
2022-12-25T03:24:30.951Z,100409.59
2022-12-25T03:26:59.345Z,100397.22
2022-12-25T03:29:48.729Z,100411.22
2022-12-25T03:32:25.907Z,100387.91
2022-12-25T03:35:20.331Z,100385.63
2022-12-25T03:38:18.917Z,100410.19
2022-12-25T03:41:15.984Z,100405.91
2022-12-25T03:44:12.480Z,100410.19
2022-12-25T03:47:06.854Z,100419.19
2022-12-25T03:50:02.282Z,100417.56
2022-12-25T03:52:50.121Z,100410.03
2022-12-25T03:55:38.160Z,100402.88
2022-12-25T03:58:23.743Z,100391.13
2022-12-25T04:01:09.153Z,100384.44
2022-12-25T04:03:54.412Z,100387.81
2022-12-25T04:06:40.068Z,100374.78
2022-12-25T04:09:26.891Z,100367.56
2022-12-25T04:12:12.639Z,100373.22
2022-12-25T04:14:57.737Z,100373.16
2022-12-25T04:17:43.624Z,100360.91
2022-12-25T04:20:29.418Z,100353.25
2022-12-25T04:23:15.069Z,100366.22
2022-12-25T04:26:01.819Z,100368.28
2022-12-25T04:28:47.789Z,100360.16
2022-12-25T04:31:33.434Z,100355.66
2022-12-25T04:34:19.249Z,100345.28
2022-12-25T04:36:47.065Z,100338.50
2022-12-25T04:39:14.859Z,100347.94
2022-12-25T04:41:44.739Z,100321.09
2022-12-25T04:44:12.559Z,100341.59
2022-12-25T04:46:40.491Z,100307.00
2022-12-25T04:49:09.013Z,100359.59
2022-12-25T04:51:37.989Z,100359.59
2022-12-25T04:54:06.116Z,100364.09
2022-12-25T04:56:40.028Z,100349.97
2022-12-25T04:59:12.810Z,100301.69
2022-12-25T05:01:41.371Z,100354.06
2022-12-25T05:04:09.264Z,100303.81
2022-12-25T05:06:37.048Z,100357.75
2022-12-25T05:09:05.555Z,100347.13
2022-12-25T05:11:33.535Z,100323.75
2022-12-25T05:14:01.389Z,100316.06
2022-12-25T05:16:31.723Z,100341.00
2022-12-25T05:18:59.691Z,100341.00
2022-12-25T05:21:27.608Z,100326.16
2022-12-25T05:23:55.861Z,100329.63
2022-12-25T05:26:26.033Z,100330.81
2022-12-25T05:28:54.276Z,100338.50
2022-12-25T05:31:24.657Z,100326.09
2022-12-25T05:33:53.919Z,100326.22
2022-12-25T05:36:22.015Z,100316.50
2022-12-25T05:38:50.679Z,100289.47
2022-12-25T05:41:18.568Z,100307.31
2022-12-25T05:43:46.484Z,100304.84
2022-12-25T05:46:15.719Z,100254.16
2022-12-25T05:48:43.632Z,100299.91
2022-12-25T05:51:15.276Z,100282.66
2022-12-25T05:53:45.287Z,100303.38
2022-12-25T05:56:13.206Z,100292.03
2022-12-25T05:58:41.758Z,100278.63
2022-12-25T06:01:14.559Z,100275.22
2022-12-25T06:03:42.564Z,100261.78
2022-12-25T06:06:12.696Z,100252.44
2022-12-25T06:08:41.091Z,100228.56
2022-12-25T06:11:10.322Z,100204.53
2022-12-25T06:13:38.430Z,100224.34
2022-12-25T06:16:07.558Z,100226.53
2022-12-25T06:18:36.944Z,100221.81
2022-12-25T06:21:08.341Z,100198.50
2022-12-25T06:23:38.884Z,100184.03
2022-12-25T06:26:09.059Z,100185.69
2022-12-25T06:28:37.515Z,100156.94
2022-12-25T06:31:08.462Z,100188.16
2022-12-25T06:33:37.923Z,100169.19
2022-12-25T06:36:07.566Z,100206.91
2022-12-25T06:38:36.962Z,100138.63
2022-12-25T06:41:07.573Z,100190.03
2022-12-25T06:43:35.463Z,100191.44
2022-12-25T06:46:05.060Z,100178.03
2022-12-25T06:48:34.046Z,100178.25
2022-12-25T06:51:03.108Z,100194.09
2022-12-25T06:53:38.793Z,100169.59
2022-12-25T06:56:15.869Z,100166.00
2022-12-25T06:58:44.469Z,100153.53
2022-12-25T07:01:19.029Z,100159.66
2022-12-25T07:03:48.628Z,100169.81
2022-12-25T07:06:16.741Z,100157.81
2022-12-25T07:08:44.999Z,100156.78
2022-12-25T07:11:14.384Z,100163.00
2022-12-25T07:13:42.199Z,100178.25
2022-12-25T07:16:12.630Z,100163.06
2022-12-25T07:18:41.210Z,100180.53
2022-12-25T07:21:10.294Z,100171.25
2022-12-25T07:23:38.904Z,100173.78
2022-12-25T07:26:07.089Z,100204.88
2022-12-25T07:28:36.406Z,100198.72
2022-12-25T07:31:06.457Z,100188.69
2022-12-25T07:33:34.482Z,100234.97
2022-12-25T07:36:02.469Z,100235.78
2022-12-25T07:38:31.024Z,100237.38
2022-12-25T07:40:58.902Z,100239.69
2022-12-25T07:43:27.441Z,100221.13
2022-12-25T07:45:59.220Z,100226.78
2022-12-25T07:48:27.830Z,100242.25
2022-12-25T07:51:00.541Z,100252.44
2022-12-25T07:53:28.717Z,100256.91
2022-12-25T07:56:01.549Z,100244.09
2022-12-25T07:58:29.892Z,100247.34
2022-12-25T08:01:05.563Z,100275.28
2022-12-25T08:03:34.566Z,100295.72
2022-12-25T08:06:02.735Z,100292.94
2022-12-25T08:08:31.547Z,100287.00
2022-12-25T08:10:59.585Z,100282.31
2022-12-25T08:13:27.587Z,100281.03
2022-12-25T08:15:59.967Z,100254.28
2022-12-25T08:18:30.304Z,100242.50
2022-12-25T08:20:58.673Z,100258.91
2022-12-25T08:23:26.962Z,100244.38
2022-12-25T08:26:00.295Z,100247.03
2022-12-25T08:28:32.603Z,100252.13
2022-12-25T08:31:07.710Z,100241.13
2022-12-25T08:33:36.531Z,100247.28
2022-12-25T08:36:04.792Z,100250.28
2022-12-25T08:38:32.960Z,100248.56
2022-12-25T08:41:00.765Z,100255.28
2022-12-25T08:43:28.783Z,100242.44
2022-12-25T08:45:56.623Z,100234.47
2022-12-25T08:48:26.384Z,100228.31
2022-12-25T08:50:54.913Z,100219.28
2022-12-25T08:53:23.188Z,100222.75
2022-12-25T08:55:58.134Z,100234.19
2022-12-25T08:58:26.366Z,100240.97
2022-12-25T09:00:54.609Z,100244.81
2022-12-25T09:03:23.185Z,100239.50
2022-12-25T09:05:52.703Z,100244.00
2022-12-25T09:08:21.746Z,100238.69
2022-12-25T09:10:50.254Z,100244.38
2022-12-25T09:13:18.113Z,100243.75
2022-12-25T09:15:46.100Z,100221.69
2022-12-25T09:18:14.655Z,100202.22
2022-12-25T09:20:42.469Z,100226.72
2022-12-25T09:23:14.011Z,100214.13
2022-12-25T09:25:43.013Z,100195.47
2022-12-25T09:28:10.834Z,100202.88
2022-12-25T09:30:38.863Z,100175.88
2022-12-25T09:33:07.606Z,100195.28
2022-12-25T09:35:35.484Z,100197.94
2022-12-25T09:38:03.324Z,100187.28
2022-12-25T09:40:34.090Z,100191.13
2022-12-25T09:43:04.434Z,100194.47
2022-12-25T09:45:37.378Z,100185.47
2022-12-25T09:48:05.787Z,100171.38
2022-12-25T09:50:41.873Z,100140.25
2022-12-25T09:53:16.284Z,100173.00
2022-12-25T09:55:53.639Z,100170.59
2022-12-25T09:58:21.411Z,100168.50
2022-12-25T10:00:56.871Z,100140.19
2022-12-25T10:03:30.330Z,100173.94
2022-12-25T10:06:13.147Z,100167.94
2022-12-25T10:09:00.083Z,100160.19
2022-12-25T10:11:48.436Z,100149.78
2022-12-25T10:14:35.318Z,100144.16
2022-12-25T10:17:25.300Z,100147.84
2022-12-25T10:20:02.081Z,100155.94
2022-12-25T10:22:36.162Z,100132.34
2022-12-25T10:25:06.905Z,100158.38
2022-12-25T10:27:40.782Z,100116.66
2022-12-25T10:30:15.896Z,100158.13
2022-12-25T10:32:44.581Z,100152.25
2022-12-25T10:35:13.232Z,100146.94
2022-12-25T10:37:42.559Z,100142.06
2022-12-25T10:40:27.588Z,100118.63
2022-12-25T10:43:02.354Z,100107.16
2022-12-25T10:45:30.340Z,100122.09
2022-12-25T10:48:07.481Z,100117.25
2022-12-25T10:50:43.704Z,100075.72
2022-12-25T10:53:20.312Z,100110.66
2022-12-25T10:56:02.319Z,100114.13
2022-12-25T10:58:32.028Z,100096.09
2022-12-25T11:01:02.331Z,100085.72
2022-12-25T11:03:32.817Z,100095.53
2022-12-25T11:06:01.117Z,100074.06
2022-12-25T11:08:31.110Z,100092.16
2022-12-25T11:11:06.073Z,100084.91
2022-12-25T11:13:38.638Z,100074.88
2022-12-25T11:16:10.794Z,100072.78
2022-12-25T11:18:46.960Z,100079.59
2022-12-25T11:21:19.724Z,100091.84
2022-12-25T11:23:50.371Z,100082.94
2022-12-25T11:26:19.422Z,100085.47
2022-12-25T11:28:51.517Z,100071.97
2022-12-25T11:31:22.481Z,100078.88
2022-12-25T11:33:56.806Z,100056.16
2022-12-25T11:36:33.238Z,100079.72
2022-12-25T11:39:09.497Z,100088.50
2022-12-25T11:41:41.517Z,100076.59
2022-12-25T11:44:27.364Z,100065.97
2022-12-25T11:46:56.269Z,100075.56
2022-12-25T11:49:24.594Z,100069.44
2022-12-25T11:51:57.536Z,100054.78
2022-12-25T11:54:28.880Z,100035.84
2022-12-25T11:56:59.210Z,100042.31
2022-12-25T11:59:34.142Z,100043.91
2022-12-25T12:02:19.818Z,100036.41
2022-12-25T12:04:50.247Z,100048.66
2022-12-25T12:07:23.679Z,100049.47
2022-12-25T12:09:59.897Z,100040.09
2022-12-25T12:12:33.663Z,100040.34
2022-12-25T12:15:14.187Z,100025.28
2022-12-25T12:17:42.636Z,100021.97
2022-12-25T12:20:27.850Z,100039.31
2022-12-25T12:22:56.619Z,100040.91
2022-12-25T12:25:24.507Z,100034.22
2022-12-25T12:28:02.891Z,100032.94
2022-12-25T12:30:36.019Z,100012.25
2022-12-25T12:33:07.685Z,100036.41
2022-12-25T12:35:38.316Z,100025.78
2022-12-25T12:38:09.633Z,100021.31
2022-12-25T12:40:40.235Z,99976.84
2022-12-25T12:43:29.791Z,100020.81
2022-12-25T12:46:04.089Z,100009.75
2022-12-25T12:48:40.338Z,100010.31
2022-12-25T12:51:10.470Z,99998.41
2022-12-25T12:53:39.735Z,100010.31
2022-12-25T12:56:16.317Z,100007.22
2022-12-25T12:58:49.015Z,100005.59
2022-12-25T13:01:40.406Z,99971.88
2022-12-25T13:04:35.278Z,99988.63
2022-12-25T13:07:12.447Z,99973.03
2022-12-25T13:09:55.688Z,99974.66
2022-12-25T13:12:24.551Z,99973.25
2022-12-25T13:14:52.341Z,99944.06
2022-12-25T13:17:25.468Z,99960.56
2022-12-25T13:19:57.053Z,99946.13
2022-12-25T13:22:27.124Z,99957.91
2022-12-25T13:24:59.400Z,99957.91
2022-12-25T13:27:29.206Z,99963.22
2022-12-25T13:29:57.473Z,99953.63
2022-12-25T13:32:29.647Z,99951.56
2022-12-25T13:34:57.994Z,99936.66
2022-12-25T13:37:28.439Z,99941.72
2022-12-25T13:39:59.374Z,99940.94
2022-12-25T13:42:30.165Z,99937.22
2022-12-25T13:45:01.433Z,99934.56
2022-12-25T13:47:34.553Z,99925.56
2022-12-25T13:50:16.916Z,99918.06
2022-12-25T13:52:45.981Z,99929.00
2022-12-25T13:55:16.374Z,99925.34
2022-12-25T13:57:46.903Z,99893.59
2022-12-25T14:00:20.636Z,99897.16
2022-12-25T14:02:53.921Z,99900.38
2022-12-25T14:05:25.584Z,99924.59
2022-12-25T14:07:54.138Z,99902.13
2022-12-25T14:10:23.191Z,99911.00
2022-12-25T14:12:52.594Z,99905.34
2022-12-25T14:15:22.574Z,99878.44
2022-12-25T14:17:52.871Z,99904.19
2022-12-25T14:20:26.765Z,99907.97
2022-12-25T14:22:57.207Z,99911.31
2022-12-25T14:25:31.307Z,99914.22
2022-12-25T14:27:59.254Z,99912.97
2022-12-25T14:30:29.963Z,99913.78
2022-12-25T14:32:59.964Z,99909.81
2022-12-25T14:35:27.898Z,99906.13
2022-12-25T14:38:00.695Z,99906.75
2022-12-25T14:40:31.423Z,99903.47
2022-12-25T14:43:01.145Z,99897.03
2022-12-25T14:45:32.106Z,99903.03
2022-12-25T14:48:04.664Z,99881.69
2022-12-25T14:50:37.331Z,99890.06
2022-12-25T14:53:05.813Z,99882.00
2022-12-25T14:55:33.757Z,99880.88
2022-12-25T14:58:04.986Z,99916.06
2022-12-25T15:00:36.161Z,99914.47
2022-12-25T15:03:07.991Z,99857.94
2022-12-25T15:05:39.060Z,99929.59
2022-12-25T15:08:23.649Z,99920.59
2022-12-25T15:11:02.092Z,99922.44
2022-12-25T15:13:31.833Z,99918.59
2022-12-25T15:16:04.851Z,99910.06
2022-12-25T15:18:39.387Z,99929.59
2022-12-25T15:21:07.655Z,99923.00
2022-12-25T15:23:35.631Z,99887.59
2022-12-25T15:26:03.612Z,99924.16
2022-12-25T15:28:31.537Z,99897.28
2022-12-25T15:30:59.592Z,99878.25
2022-12-25T15:33:27.600Z,99933.31
2022-12-25T15:35:56.882Z,99878.72
2022-12-25T15:38:24.878Z,99897.28
2022-12-25T15:40:52.813Z,99929.47
2022-12-25T15:43:39.967Z,99865.56
2022-12-25T15:46:10.494Z,99918.03
2022-12-25T15:48:38.569Z,99919.09
2022-12-25T15:51:07.974Z,99905.56
2022-12-25T15:53:36.840Z,99887.13
2022-12-25T15:56:05.541Z,99919.41
2022-12-25T15:58:33.910Z,99923.91
2022-12-25T16:01:01.730Z,99906.50
2022-12-25T16:09:06.240Z,99941.69
2022-12-25T16:11:34.224Z,99944.03
2022-12-25T16:14:02.109Z,99928.09
2022-12-25T16:16:30.167Z,99941.50
2022-12-25T16:18:58.164Z,99924.19
2022-12-25T16:21:28.305Z,99960.31
2022-12-25T16:23:56.661Z,99925.94
2022-12-25T16:26:24.492Z,99952.91
2022-12-25T16:28:52.240Z,99938.38
2022-12-25T16:31:20.829Z,99930.31
2022-12-25T16:33:48.677Z,99937.91
2022-12-25T16:36:20.668Z,99914.03
2022-12-25T16:38:53.378Z,99908.47
2022-12-25T16:41:21.827Z,99911.81
2022-12-25T16:43:49.698Z,99925.09
2022-12-25T16:46:20.020Z,99893.38
2022-12-25T16:48:48.023Z,99930.50
2022-12-25T16:51:17.856Z,99933.16
2022-12-25T16:53:46.670Z,99913.78
2022-12-25T16:56:17.667Z,99890.59
2022-12-25T16:58:47.136Z,99934.44
2022-12-25T17:01:17.210Z,99944.34
2022-12-25T17:03:45.277Z,99919.88
2022-12-25T17:06:17.957Z,99935.63
2022-12-25T17:08:45.946Z,99944.25
2022-12-25T17:11:15.820Z,99960.22
2022-12-25T17:13:47.340Z,99962.41
2022-12-25T17:16:16.898Z,99918.53
2022-12-25T17:18:46.144Z,99925.69
2022-12-25T17:21:15.700Z,99956.03
2022-12-25T17:23:45.203Z,99925.09
2022-12-25T17:26:13.333Z,99943.56
2022-12-25T17:28:42.661Z,99935.13
2022-12-25T17:31:13.491Z,99901.75
2022-12-25T17:33:43.902Z,99932.47
2022-12-25T17:36:14.594Z,99941.94
2022-12-25T17:38:43.033Z,99934.66
2022-12-25T17:41:14.403Z,99945.41
2022-12-25T17:43:45.767Z,99927.50
2022-12-25T17:46:17.051Z,99880.88
2022-12-25T17:48:45.843Z,99915.28
2022-12-25T17:51:16.316Z,99884.84
2022-12-25T17:53:47.345Z,99959.16
2022-12-25T17:56:16.400Z,99951.75
2022-12-25T17:58:46.127Z,99960.75
2022-12-25T18:01:16.379Z,99966.75
2022-12-25T18:03:44.380Z,99967.19
2022-12-25T18:06:17.096Z,99965.22
2022-12-25T18:08:46.886Z,99959.19
2022-12-25T18:11:17.597Z,99975.22
2022-12-25T18:13:50.037Z,99969.00
2022-12-25T18:16:20.274Z,99947.66
2022-12-25T18:18:52.191Z,99942.59
2022-12-25T18:21:21.894Z,99947.94
2022-12-25T18:23:50.571Z,99991.44
2022-12-25T18:26:19.878Z,99970.13
2022-12-25T18:28:50.139Z,99973.69
2022-12-25T18:31:20.185Z,99982.81
2022-12-25T18:33:48.905Z,99942.03
2022-12-25T18:36:20.627Z,99927.75
2022-12-25T18:38:48.754Z,99904.69
2022-12-25T18:41:17.007Z,99956.59
2022-12-25T18:43:52.919Z,99957.38
2022-12-25T18:46:25.657Z,99977.59
2022-12-25T18:48:54.950Z,99971.47
2022-12-25T18:51:23.262Z,99978.09
2022-12-25T18:53:51.487Z,99977.03
2022-12-25T18:56:19.859Z,99936.88
2022-12-25T18:58:47.920Z,99977.28
2022-12-25T19:01:17.964Z,99940.34
2022-12-25T19:03:49.427Z,99961.69
2022-12-25T19:06:18.970Z,99928.22
2022-12-25T19:08:47.212Z,99967.00
2022-12-25T19:11:16.256Z,99968.16
2022-12-25T19:13:44.377Z,99972.09
2022-12-25T19:16:12.742Z,99947.84
2022-12-25T19:18:41.997Z,99951.41
2022-12-25T19:21:11.854Z,99933.06
2022-12-25T19:23:47.810Z,99953.81
2022-12-25T19:26:16.153Z,99937.78
2022-12-25T19:28:44.044Z,99935.59
2022-12-25T19:31:13.004Z,99894.59
2022-12-25T19:33:42.464Z,99925.66
2022-12-25T19:36:14.982Z,99898.88
2022-12-25T19:38:43.593Z,99927.50
2022-12-25T19:41:13.891Z,99944.81
2022-12-25T19:43:43.898Z,99949.66
2022-12-25T19:46:17.645Z,99940.44
2022-12-25T19:48:47.225Z,99974.63
2022-12-25T19:51:22.069Z,99980.28
2022-12-25T19:53:50.595Z,99984.00
2022-12-25T19:56:19.149Z,100001.19
2022-12-25T19:58:47.079Z,99979.03
2022-12-25T20:01:18.062Z,100003.88
2022-12-25T20:03:46.795Z,100006.28
2022-12-25T20:06:18.891Z,99995.28
2022-12-25T20:08:49.363Z,99940.22
2022-12-25T20:11:19.161Z,99977.53
2022-12-25T20:13:47.202Z,99987.47
2022-12-25T20:16:15.060Z,99967.13
2022-12-25T20:18:46.064Z,99988.28
2022-12-25T20:21:17.167Z,99988.72
2022-12-25T20:23:47.020Z,99977.84
2022-12-25T20:26:17.699Z,99989.22
2022-12-25T20:28:46.232Z,99987.34
2022-12-25T20:31:17.118Z,99941.63
2022-12-25T20:33:45.230Z,99992.44
2022-12-25T20:36:13.668Z,99971.31
2022-12-25T20:38:41.881Z,99992.09
2022-12-25T20:41:29.451Z,99969.44
2022-12-25T20:44:02.308Z,99999.72
2022-12-25T20:46:30.334Z,99966.09
2022-12-25T20:48:58.525Z,99967.38
2022-12-25T20:51:28.160Z,99984.00
2022-12-25T20:53:56.758Z,100012.78
2022-12-25T20:56:27.163Z,100014.63
2022-12-25T20:58:58.657Z,100019.34
2022-12-25T21:01:28.917Z,99997.28
2022-12-25T21:03:57.625Z,100030.19
2022-12-25T21:06:25.733Z,100009.50
2022-12-25T21:08:53.667Z,100022.34
2022-12-25T21:11:22.615Z,100023.25
2022-12-25T21:13:51.318Z,100009.06
2022-12-25T21:16:23.262Z,100028.13
2022-12-25T21:18:54.314Z,100029.16
2022-12-25T21:21:23.169Z,100009.97
2022-12-25T21:23:51.248Z,100029.38
2022-12-25T21:26:21.840Z,100038.75
2022-12-25T21:28:51.402Z,100033.53
2022-12-25T21:31:19.991Z,100030.31
2022-12-25T21:33:53.798Z,100040.75
2022-12-25T21:36:27.105Z,100050.31
2022-12-25T21:39:00.722Z,100048.47
2022-12-25T21:41:29.842Z,100040.13
2022-12-25T21:44:01.350Z,100064.16
2022-12-25T21:46:30.287Z,99989.88
2022-12-25T21:48:59.189Z,100017.47
2022-12-25T21:51:47.876Z,100055.16
2022-12-25T21:54:17.366Z,100064.19
2022-12-25T21:56:48.406Z,100069.81
2022-12-25T21:59:17.991Z,100044.19
2022-12-25T22:01:46.653Z,100042.69
2022-12-25T22:04:16.149Z,100062.34
2022-12-25T22:07:03.724Z,100063.34
2022-12-25T22:09:34.821Z,100059.44
2022-12-25T22:12:28.524Z,100056.00
2022-12-25T22:15:06.247Z,100071.91
2022-12-25T22:17:53.876Z,100051.00
2022-12-25T22:20:24.022Z,100073.97
2022-12-25T22:22:54.723Z,100074.47
2022-12-25T22:25:23.983Z,100084.16
2022-12-25T22:27:52.333Z,100074.69
2022-12-25T22:30:23.311Z,100073.06
2022-12-25T22:32:52.397Z,100086.25
2022-12-25T22:35:20.820Z,100078.16
2022-12-25T22:37:50.210Z,100090.63
2022-12-25T22:40:21.419Z,100080.13
2022-12-25T22:42:49.313Z,100095.94
2022-12-25T22:45:17.939Z,100081.03
2022-12-25T22:47:45.846Z,100109.00
2022-12-25T22:50:15.801Z,100105.28
2022-12-25T22:52:46.227Z,100103.91
2022-12-25T22:55:18.438Z,100108.31
2022-12-25T22:57:49.421Z,100102.41
2022-12-25T23:00:17.352Z,100109.91
2022-12-25T23:02:45.439Z,100108.91
2022-12-25T23:05:14.059Z,100097.66
2022-12-25T23:07:41.980Z,100098.38
2022-12-25T23:10:10.858Z,100064.88
2022-12-25T23:12:56.781Z,100094.56
2022-12-25T23:15:27.686Z,100088.78
2022-12-25T23:18:13.939Z,100095.94
2022-12-25T23:20:58.995Z,100100.91
2022-12-25T23:23:44.599Z,100106.25
2022-12-25T23:26:15.262Z,100110.50
2022-12-25T23:29:01.646Z,100114.91
2022-12-25T23:31:34.634Z,100113.97
2022-12-25T23:34:03.316Z,100096.88
2022-12-25T23:36:31.146Z,100065.41
2022-12-25T23:39:04.827Z,100075.59
2022-12-25T23:41:37.419Z,100132.47
2022-12-25T23:44:05.297Z,100136.97
2022-12-25T23:46:36.112Z,100139.53
2022-12-25T23:49:05.025Z,100148.06
2022-12-25T23:51:32.854Z,100141.69
2022-12-25T23:54:00.710Z,100145.16
2022-12-25T23:56:28.679Z,100129.34
2022-12-25T23:58:56.561Z,100109.94
